Airfield :
LOGIN :

Register | Disclaimer

   EN    FR    IT 

 










Legend :    VFR   Marginal VFR   IFR   Intensive IFR   Very Intensive IFR
Visi :
Ceiling :
>= 8 km
>= 3000ft
5 to 8 km
1000 to 3000 ft
1500m to 5 km
500 to 1000 ft
800 to 1500m
200 to 500 ft
< 800m
< 200 ft
Symbols :   Thunderstorms  Fog  Heavy snow  Heavy precipitations  Wind > 20 kt
SIGMETs :     Misc.  Thunderstorms  Icing  Turbulence  Mountain Waves  Volcanic Ashes






- Airport Elevation : 171 ft
- IATA code : EGC


LFBE - Bergerac

CURRENT METAR :
  • 021030Z AUTO VRB03KT CAVOK 24/13 Q1019 NOSIG

EXPIRED METARs :
  • 021000Z AUTO VRB02KT CAVOK 23/12 Q1019 NOSIG
  • 020930Z AUTO VRB02KT CAVOK 23/13 Q1019 NOSIG
  • 020900Z AUTO VRB03KT CAVOK 21/13 Q1019 NOSIG
  • 020830Z AUTO VRB03KT CAVOK 20/14 Q1020 NOSIG
  • 012130Z AUTO 00000KT CAVOK 13/11 Q1021
  • 020800Z AUTO 05003KT 010V100 CAVOK 18/13 Q1020 NOSIG

TAF AMD TAF LFBE
Valid from the 02 at 06:00 until the 03 at 06:00 UTC


020545Z 0206/0306 04005KT 0600 FG VV///
BECMG 0206/0207 CAVOK
BECMG 0216/0218 33010KT
PROB30
TEMPO 0304/0306 0800 BCFG



MET'MAP, your aeronautical weather chart ! - Copyright ORBIFLY December 2007 - Disclaimer

ORBIFLY MET'MAP TEAM :

Programming & Development : Alexandra Zaïnal
Original concept : Baudouin d'Aumeries
Technical & hardware support : Manuel Goepfert
Assistance : Marc-Olivier Méhu




SOURCES & CREDITS :

   NOAA